Time;durP1;ratioP1;P1;durP2;ratioP2;P2;SDS_P1;SDS_P2;PMS_P1;PMS_P2;Temp;Humidity;BMP_temperature;BMP_pressure;BME280_temperature;BME280_humidity;BME280_pressure;Samples;Min_cycle;Max_cycle;Signal;HPM_P1;HPM_P2
2022/03/29 00:02:03;;;;;;;11.77;6.57;;;21.10;47.10;;;;;;4981081;28;20054;-69
2022/03/29 00:04:29;;;;;;;10.13;5.28;;;21.10;47.00;;;;;;4976609;29;20042;-69
2022/03/29 00:06:56;;;;;;;14.50;6.30;;;21.00;47.00;;;;;;4976733;28;20043;-69
2022/03/29 00:09:23;;;;;;;12.48;5.88;;;21.10;47.00;;;;;;4977500;28;20110;-69
2022/03/29 00:11:49;;;;;;;11.85;5.78;;;21.10;47.00;;;;;;4983889;28;20042;-69
2022/03/29 00:14:15;;;;;;;10.93;6.03;;;21.10;47.00;;;;;;4978458;28;20047;-69
2022/03/29 00:16:42;;;;;;;11.45;6.88;;;21.10;46.90;;;;;;4977549;28;20132;-68
2022/03/29 00:19:08;;;;;;;13.13;6.43;;;21.10;46.90;;;;;;4976513;29;20066;-69
2022/03/29 00:21:34;;;;;;;15.65;5.82;;;21.20;47.00;;;;;;4985995;28;20034;-69
2022/03/29 00:24:01;;;;;;;12.35;6.18;;;21.10;47.10;;;;;;4992695;28;20099;-69
2022/03/29 00:26:27;;;;;;;11.27;6.18;;;21.00;47.10;;;;;;4986538;28;20047;-70
2022/03/29 00:28:54;;;;;;;11.13;6.85;;;21.00;47.20;;;;;;4995990;28;20082;-70
2022/03/29 00:31:20;;;;;;;9.38;6.43;;;21.00;47.20;;;;;;4979280;28;20051;-69
2022/03/29 00:33:47;;;;;;;11.70;6.43;;;20.90;47.30;;;;;;4977375;29;20090;-68
2022/03/29 00:36:13;;;;;;;14.45;6.90;;;20.90;47.40;;;;;;4977553;29;20039;-69
2022/03/29 00:38:40;;;;;;;12.23;6.57;;;20.80;47.40;;;;;;4977381;29;20047;-69
2022/03/29 00:41:06;;;;;;;14.35;6.50;;;20.90;47.60;;;;;;4980771;28;20050;-69
2022/03/29 00:43:32;;;;;;;14.98;6.68;;;20.90;47.60;;;;;;4980045;28;20049;-68
2022/03/29 00:45:59;;;;;;;11.05;6.72;;;20.80;47.60;;;;;;4987386;28;20067;-69
2022/03/29 00:48:25;;;;;;;10.98;6.75;;;20.90;47.80;;;;;;4978625;28;20043;-68
2022/03/29 00:50:53;;;;;;;12.48;7.18;;;20.80;47.50;;;;;;4977272;29;20085;-69
2022/03/29 00:53:22;;;;;;;13.75;7.38;;;20.90;47.50;;;;;;4977188;29;20047;-68
2022/03/29 00:55:50;;;;;;;12.38;7.20;;;20.90;47.40;;;;;;4983166;28;20061;-70
2022/03/29 00:58:17;;;;;;;14.18;7.93;;;20.90;47.50;;;;;;4978892;28;20046;-71
2022/03/29 01:00:44;;;;;;;16.17;7.45;;;20.90;47.50;;;;;;4989543;28;20050;-69
2022/03/29 01:03:11;;;;;;;16.80;7.93;;;20.80;47.50;;;;;;4999565;28;20050;-68
2022/03/29 01:05:38;;;;;;;17.48;8.40;;;20.80;47.70;;;;;;4998627;28;20047;-68
2022/03/29 01:08:05;;;;;;;16.02;7.68;;;20.80;47.50;;;;;;4999465;28;20049;-70
2022/03/29 01:10:31;;;;;;;15.95;6.82;;;20.80;47.70;;;;;;4999830;28;20047;-68
2022/03/29 01:12:58;;;;;;;13.18;7.75;;;20.80;47.50;;;;;;4983314;28;20051;-68
2022/03/29 01:15:27;;;;;;;15.20;7.60;;;20.90;47.60;;;;;;4966719;28;20039;-70
2022/03/29 01:17:54;;;;;;;11.48;6.85;;;20.90;47.50;;;;;;4999742;28;20110;-69
2022/03/29 01:20:27;;;;;;;11.77;6.85;;;20.90;47.50;;;;;;4981578;28;20065;-69
2022/03/29 01:22:55;;;;;;;15.02;7.60;;;20.90;47.40;;;;;;4996691;28;20057;-69
2022/03/29 01:25:37;;;;;;;13.10;6.60;;;20.90;47.30;;;;;;4993427;28;20038;-68
2022/03/29 01:28:05;;;;;;;17.10;7.70;;;20.90;47.30;;;;;;4986527;28;20042;-70
2022/03/29 01:30:32;;;;;;;20.08;7.72;;;20.90;47.30;;;;;;4976792;28;20047;-70
2022/03/29 01:33:01;;;;;;;15.15;7.68;;;20.80;47.20;;;;;;4978523;29;20051;-69
2022/03/29 01:35:54;;;;;;;18.52;8.07;;;20.80;47.20;;;;;;4978390;29;20039;-68
2022/03/29 01:38:20;;;;;;;14.85;7.18;;;20.90;47.20;;;;;;4986228;28;20047;-69
2022/03/29 01:40:46;;;;;;;18.00;7.40;;;20.80;47.20;;;;;;4991337;28;20070;-70
2022/03/29 01:43:12;;;;;;;12.93;7.65;;;20.70;47.20;;;;;;4995015;28;20031;-69
2022/03/29 01:45:39;;;;;;;12.57;6.90;;;20.80;47.20;;;;;;4993194;28;20061;-69
2022/03/29 01:48:05;;;;;;;13.20;7.68;;;20.70;47.20;;;;;;4998561;28;20050;-69
2022/03/29 01:50:31;;;;;;;14.88;6.75;;;20.70;47.20;;;;;;4982165;28;20078;-67
2022/03/29 01:52:57;;;;;;;15.32;6.10;;;20.70;47.30;;;;;;4999132;28;20047;-69
2022/03/29 01:55:24;;;;;;;13.07;6.57;;;20.60;47.10;;;;;;4994516;28;20039;-68
2022/03/29 01:57:51;;;;;;;17.52;6.00;;;20.70;47.30;;;;;;4982425;28;20050;-69
2022/03/29 02:00:38;;;;;;;16.30;6.53;;;20.60;47.20;;;;;;4966133;28;20039;-70
2022/03/29 02:03:07;;;;;;;12.70;7.20;;;20.50;47.20;;;;;;4979488;29;20051;-69
2022/03/29 02:05:34;;;;;;;21.17;7.43;;;20.60;47.20;;;;;;4962402;29;20035;-68
2022/03/29 02:08:02;;;;;;;18.38;6.28;;;20.60;47.30;;;;;;4991332;28;20043;-69
2022/03/29 02:10:28;;;;;;;10.63;6.38;;;20.50;47.20;;;;;;4981321;28;20034;-68
2022/03/29 02:12:55;;;;;;;17.95;6.07;;;20.50;47.10;;;;;;4987747;28;20086;-68
2022/03/29 02:15:23;;;;;;;14.07;6.75;;;20.50;47.00;;;;;;4979024;28;20043;-68
2022/03/29 02:17:49;;;;;;;7.93;5.78;;;20.60;46.90;;;;;;4997511;28;20039;-68
2022/03/29 02:20:16;;;;;;;11.60;6.25;;;20.50;46.70;;;;;;4991897;28;20047;-69
2022/03/29 02:22:44;;;;;;;10.77;6.40;;;20.60;46.60;;;;;;4969415;28;20039;-69
2022/03/29 02:25:11;;;;;;;12.90;5.85;;;20.60;46.50;;;;;;4997584;28;20038;-69
2022/03/29 02:27:41;;;;;;;16.27;6.57;;;20.60;46.40;;;;;;4991512;28;20051;-68
2022/03/29 02:30:10;;;;;;;14.75;6.32;;;20.60;46.40;;;;;;4978558;28;20047;-67
2022/03/29 02:32:36;;;;;;;16.75;7.38;;;20.60;46.40;;;;;;4996734;28;20062;-69
2022/03/29 02:35:04;;;;;;;14.32;6.95;;;20.50;46.50;;;;;;4998241;28;20052;-69
2022/03/29 02:37:31;;;;;;;13.23;6.05;;;20.60;46.60;;;;;;4998408;28;20119;-69
2022/03/29 02:39:57;;;;;;;14.35;7.05;;;20.60;46.60;;;;;;4998158;28;20047;-70
2022/03/29 02:42:23;;;;;;;14.25;6.75;;;20.50;46.60;;;;;;4991072;28;20042;-69
2022/03/29 02:44:50;;;;;;;19.55;5.18;;;20.60;46.60;;;;;;4978616;29;20043;-70
2022/03/29 02:47:16;;;;;;;10.70;6.32;;;20.50;46.60;;;;;;4978718;29;20070;-69
2022/03/29 02:49:42;;;;;;;16.02;5.70;;;20.40;46.60;;;;;;4977859;29;20062;-68
2022/03/29 02:52:10;;;;;;;12.82;6.78;;;20.40;46.60;;;;;;4978444;29;20063;-68
2022/03/29 02:54:36;;;;;;;13.25;6.28;;;20.40;46.70;;;;;;4978274;28;20066;-68
2022/03/29 02:57:03;;;;;;;12.75;5.78;;;20.30;46.60;;;;;;4978989;28;20070;-70
2022/03/29 02:59:29;;;;;;;10.82;6.30;;;20.50;46.70;;;;;;4978267;28;20035;-69
2022/03/29 03:01:56;;;;;;;15.20;6.32;;;20.40;46.40;;;;;;4992470;28;20039;-69
2022/03/29 03:04:22;;;;;;;14.10;6.53;;;20.50;46.40;;;;;;4980911;28;20043;-69
2022/03/29 03:06:49;;;;;;;11.60;6.28;;;20.50;46.30;;;;;;4978128;29;20047;-69
2022/03/29 03:09:15;;;;;;;16.67;6.13;;;20.50;46.20;;;;;;4978252;29;20094;-69
2022/03/29 03:11:41;;;;;;;16.73;6.63;;;20.40;46.10;;;;;;4971080;28;20066;-69
2022/03/29 03:14:07;;;;;;;11.07;5.20;;;20.40;46.00;;;;;;4980478;28;20035;-69
2022/03/29 03:16:34;;;;;;;13.15;5.75;;;20.40;46.00;;;;;;4988472;28;20085;-69
2022/03/29 03:19:00;;;;;;;14.85;5.75;;;20.50;46.00;;;;;;4997703;28;20045;-69
2022/03/29 03:21:26;;;;;;;12.02;6.07;;;20.50;45.90;;;;;;4996465;28;20058;-68
2022/03/29 03:23:53;;;;;;;16.48;6.32;;;20.50;45.90;;;;;;4969800;29;20058;-69
2022/03/29 03:26:19;;;;;;;13.98;5.78;;;20.50;45.90;;;;;;4978122;29;20090;-69
2022/03/29 03:28:46;;;;;;;14.52;6.15;;;20.50;46.00;;;;;;4989009;28;20039;-71
2022/03/29 03:31:12;;;;;;;9.98;5.95;;;20.50;46.10;;;;;;4996192;28;20047;-68
2022/03/29 03:33:39;;;;;;;26.10;8.40;;;20.30;46.10;;;;;;4979473;28;20077;-69
2022/03/29 03:36:05;;;;;;;18.17;6.30;;;20.40;46.10;;;;;;4978972;28;20045;-68
2022/03/29 03:38:32;;;;;;;20.48;6.00;;;20.30;46.10;;;;;;4997450;28;20077;-69
2022/03/29 03:40:57;;;;;;;11.23;5.88;;;20.40;46.10;;;;;;4984397;28;20049;-69
2022/03/29 03:43:24;;;;;;;11.38;6.40;;;20.40;46.30;;;;;;4990387;28;20042;-68
2022/03/29 03:45:50;;;;;;;14.63;5.95;;;20.40;46.30;;;;;;4990714;28;20046;-68
2022/03/29 03:48:16;;;;;;;11.82;5.40;;;20.50;46.50;;;;;;4988815;28;20046;-70
2022/03/29 03:50:42;;;;;;;9.38;5.50;;;20.40;46.40;;;;;;4996985;28;20070;-68
2022/03/29 03:53:08;;;;;;;12.77;6.00;;;20.30;46.50;;;;;;4995854;28;20065;-70
2022/03/29 03:55:35;;;;;;;11.98;5.53;;;20.20;46.60;;;;;;4996727;28;20488;-69
2022/03/29 03:58:01;;;;;;;14.38;6.47;;;20.30;46.80;;;;;;4986308;28;20035;-70
2022/03/29 04:00:27;;;;;;;19.00;6.90;;;20.10;46.80;;;;;;4995005;28;20045;-68
2022/03/29 04:02:54;;;;;;;16.73;6.68;;;20.20;46.70;;;;;;4977557;28;20069;-68
2022/03/29 04:05:26;;;;;;;10.13;5.95;;;20.10;46.80;;;;;;4976600;28;20632;-69
2022/03/29 04:07:52;;;;;;;12.23;6.80;;;20.20;46.80;;;;;;4984751;28;20067;-68
2022/03/29 04:10:19;;;;;;;12.05;6.00;;;20.10;46.80;;;;;;4976770;29;20050;-69
2022/03/29 04:12:45;;;;;;;16.77;6.47;;;20.00;46.60;;;;;;4979867;28;20047;-68
2022/03/29 04:15:12;;;;;;;13.73;6.35;;;20.20;46.70;;;;;;4985716;28;20071;-69
2022/03/29 04:17:38;;;;;;;11.18;7.38;;;20.00;46.50;;;;;;4977479;28;20055;-68
2022/03/29 04:20:06;;;;;;;11.50;6.68;;;20.10;46.40;;;;;;4983609;28;20090;-69
2022/03/29 04:22:32;;;;;;;13.00;6.95;;;20.00;46.10;;;;;;4995801;28;20050;-69
2022/03/29 04:24:59;;;;;;;13.63;6.72;;;20.20;46.00;;;;;;4996422;28;20037;-69
2022/03/29 04:27:25;;;;;;;11.77;7.13;;;20.10;45.90;;;;;;4977949;28;20084;-68
2022/03/29 04:29:51;;;;;;;12.70;6.88;;;20.20;45.80;;;;;;4981131;28;20050;-69
2022/03/29 04:32:17;;;;;;;16.45;7.57;;;20.20;45.70;;;;;;4984396;28;20049;-69
2022/03/29 04:34:45;;;;;;;12.02;6.20;;;20.20;45.60;;;;;;4998303;28;20062;-70
2022/03/29 04:37:11;;;;;;;22.55;7.20;;;20.20;45.60;;;;;;4998393;28;20057;-71
2022/03/29 04:39:38;;;;;;;15.13;7.20;;;20.30;45.70;;;;;;4995765;28;20034;-69
2022/03/29 04:42:05;;;;;;;13.13;7.22;;;20.30;45.60;;;;;;4987675;28;20043;-69
2022/03/29 04:44:34;;;;;;;13.25;7.63;;;20.40;45.50;;;;;;4992764;28;20069;-68
2022/03/29 04:47:00;;;;;;;21.15;8.52;;;20.40;45.40;;;;;;4999143;28;20046;-69
2022/03/29 04:49:26;;;;;;;20.45;8.98;;;20.40;45.30;;;;;;4983128;28;20066;-70
2022/03/29 04:51:52;;;;;;;27.58;10.38;;;20.40;45.20;;;;;;4999546;28;20038;-68
2022/03/29 04:54:18;;;;;;;26.80;11.15;;;20.50;45.30;;;;;;4998343;28;20039;-69
2022/03/29 04:56:45;;;;;;;34.47;12.18;;;20.40;45.20;;;;;;4998401;28;20043;-69
2022/03/29 04:59:11;;;;;;;27.55;12.07;;;20.60;45.20;;;;;;4987971;28;20039;-70
2022/03/29 05:01:39;;;;;;;31.13;10.73;;;20.50;45.10;;;;;;4987762;28;20114;-69
2022/03/29 05:04:05;;;;;;;24.77;9.25;;;20.50;45.10;;;;;;4979921;29;20075;-68
2022/03/29 05:06:32;;;;;;;26.70;9.48;;;20.60;45.10;;;;;;4985935;28;20050;-68
2022/03/29 05:08:58;;;;;;;25.60;10.05;;;20.60;45.20;;;;;;4990478;28;20074;-67
2022/03/29 05:11:24;;;;;;;13.10;6.70;;;20.60;45.50;;;;;;4989160;28;20058;-67
2022/03/29 05:13:50;;;;;;;12.68;4.85;;;20.60;40.60;;;;;;4986910;28;20070;-66
2022/03/29 05:16:16;;;;;;;15.55;7.30;;;20.70;38.40;;;;;;4973307;28;20042;-66
2022/03/29 05:18:43;;;;;;;9.50;5.10;;;20.80;36.30;;;;;;4998543;28;20057;-68
2022/03/29 05:21:10;;;;;;;8.05;4.40;;;20.70;36.80;;;;;;4987194;28;20082;-69
2022/03/29 05:23:36;;;;;;;12.45;4.72;;;20.90;37.20;;;;;;4987096;28;20078;-69
2022/03/29 05:26:03;;;;;;;13.38;5.03;;;21.00;36.70;;;;;;4989392;28;20043;-68
2022/03/29 05:28:29;;;;;;;11.60;4.82;;;21.10;35.10;;;;;;4988171;28;20080;-68
2022/03/29 05:30:55;;;;;;;5.25;4.03;;;21.20;35.00;;;;;;4990442;28;20047;-68
2022/03/29 05:33:21;;;;;;;13.45;5.55;;;21.30;35.40;;;;;;4989443;28;20051;-69
2022/03/29 05:35:47;;;;;;;8.93;4.47;;;21.40;36.50;;;;;;4988746;28;20043;-68
2022/03/29 05:38:14;;;;;;;9.60;4.68;;;21.50;36.20;;;;;;4990134;28;20043;-67
2022/03/29 05:40:40;;;;;;;10.93;4.45;;;21.60;35.50;;;;;;4987730;28;20039;-67
2022/03/29 05:43:11;;;;;;;18.50;4.72;;;21.60;34.30;;;;;;4991735;28;20043;-66
2022/03/29 05:45:40;;;;;;;9.40;4.60;;;21.60;35.30;;;;;;4994738;28;20034;-69
2022/03/29 05:50:53;;;;;;;17.98;5.97;;;22.10;32.60;;;;;;4986645;28;20906;-67
2022/03/29 05:53:19;;;;;;;15.95;6.30;;;21.80;34.90;;;;;;4969907;29;20488;-67
2022/03/29 05:55:48;;;;;;;10.75;5.85;;;21.80;33.50;;;;;;4979911;28;20046;-68
2022/03/29 05:58:16;;;;;;;20.33;7.20;;;22.00;36.40;;;;;;4986342;28;20043;-70
2022/03/29 06:00:43;;;;;;;12.20;6.22;;;21.90;47.80;;;;;;4979013;28;20065;-67
2022/03/29 06:03:10;;;;;;;21.75;7.15;;;22.00;49.40;;;;;;4997072;28;20043;-67
2022/03/29 06:05:41;;;;;;;12.23;6.68;;;22.00;49.80;;;;;;4997893;28;20145;-67
2022/03/29 06:08:07;;;;;;;21.55;7.10;;;21.90;50.20;;;;;;4979630;28;20086;-67
2022/03/29 06:10:33;;;;;;;24.23;7.53;;;21.90;50.20;;;;;;4982489;28;20043;-67
2022/03/29 06:12:59;;;;;;;14.77;7.13;;;21.90;52.00;;;;;;4985322;28;20057;-67
2022/03/29 06:15:27;;;;;;;10.82;7.10;;;21.90;53.50;;;;;;4984779;28;20046;-67
2022/03/29 06:17:53;;;;;;;13.75;7.60;;;21.90;54.00;;;;;;4978617;28;20043;-66
2022/03/29 06:20:19;;;;;;;17.63;7.90;;;21.80;52.70;;;;;;4997060;28;20066;-67
2022/03/29 06:22:46;;;;;;;16.45;7.88;;;21.80;52.60;;;;;;4996844;28;20051;-67
2022/03/29 06:25:13;;;;;;;10.95;6.60;;;21.70;53.10;;;;;;4981117;28;20045;-68
2022/03/29 06:27:39;;;;;;;14.02;7.97;;;21.70;53.30;;;;;;4996811;28;20054;-68
2022/03/29 06:30:07;;;;;;;12.68;7.95;;;21.60;53.60;;;;;;4982398;28;20043;-68
2022/03/29 06:32:34;;;;;;;15.80;6.85;;;21.60;53.80;;;;;;4978968;28;20063;-67
2022/03/29 06:35:01;;;;;;;20.52;7.13;;;21.60;53.90;;;;;;4991515;28;20035;-66
2022/03/29 06:37:27;;;;;;;21.92;7.32;;;21.60;54.00;;;;;;4980695;28;20087;-67
2022/03/29 06:39:53;;;;;;;28.70;7.28;;;21.70;54.00;;;;;;4988151;28;20054;-67
2022/03/29 06:42:19;;;;;;;18.10;8.75;;;21.50;54.20;;;;;;4977993;29;20038;-67
2022/03/29 06:44:47;;;;;;;13.27;6.97;;;21.50;53.20;;;;;;4980241;28;20082;-69
2022/03/29 06:47:13;;;;;;;9.10;3.53;;;21.60;51.80;;;;;;4984312;28;20050;-69
2022/03/29 06:49:40;;;;;;;2.50;1.95;;;21.70;45.00;;;;;;4991357;28;20042;-67
2022/03/29 06:52:07;;;;;;;7.13;3.75;;;22.00;46.60;;;;;;4989489;28;20054;-67
2022/03/29 06:54:34;;;;;;;7.70;4.68;;;22.10;43.30;;;;;;4987203;28;20058;-68
2022/03/29 06:57:00;;;;;;;9.20;4.18;;;22.30;41.00;;;;;;4978153;28;20043;-67
2022/03/29 06:59:26;;;;;;;6.53;4.60;;;22.50;41.30;;;;;;4981458;28;20050;-66
2022/03/29 07:01:53;;;;;;;4.65;2.28;;;22.50;35.80;;;;;;4979705;28;20095;-68
2022/03/29 07:04:19;;;;;;;9.93;3.25;;;22.50;46.90;;;;;;4986308;28;20077;-69
2022/03/29 07:06:46;;;;;;;2.60;1.20;;;22.50;47.50;;;;;;4982174;28;20082;-69
2022/03/29 07:11:56;;;;;;;10.00;4.88;;;22.70;47.90;;;;;;4991564;28;20078;-68
2022/03/29 07:14:22;;;;;;;3.47;2.83;;;22.70;45.90;;;;;;4981611;28;20034;-68
2022/03/29 07:16:50;;;;;;;7.88;3.60;;;22.70;44.40;;;;;;4979514;28;20039;-67
2022/03/29 07:19:16;;;;;;;2.15;1.58;;;22.70;43.60;;;;;;4983688;28;20062;-66
2022/03/29 07:21:43;;;;;;;3.33;1.75;;;22.70;42.80;;;;;;4983115;28;20039;-68
2022/03/29 07:24:11;;;;;;;19.15;9.00;;;22.70;42.30;;;;;;4991419;28;20469;-67
2022/03/29 07:26:39;;;;;;;16.38;10.38;;;22.70;39.40;;;;;;4994652;28;20042;-67
2022/03/29 07:29:05;;;;;;;18.05;8.68;;;22.60;40.20;;;;;;4993322;28;20043;-67
2022/03/29 07:31:32;;;;;;;14.90;8.73;;;22.50;41.80;;;;;;4996038;28;20106;-68
2022/03/29 07:33:58;;;;;;;20.35;9.52;;;22.40;41.70;;;;;;4977073;28;20114;-69
2022/03/29 07:36:28;;;;;;;20.23;9.52;;;22.30;42.10;;;;;;4977585;29;20039;-67
2022/03/29 07:39:15;;;;;;;24.35;10.13;;;22.20;42.70;;;;;;5092124;28;20384;-67
2022/03/29 07:41:41;;;;;;;20.30;9.85;;;22.20;43.00;;;;;;5092280;28;20062;-67
2022/03/29 07:44:10;;;;;;;24.80;9.70;;;22.10;43.30;;;;;;5075674;28;20082;-68
2022/03/29 07:46:37;;;;;;;28.25;10.43;;;22.10;43.70;;;;;;5073045;28;20040;-68
2022/03/29 07:49:03;;;;;;;24.88;9.52;;;22.20;44.10;;;;;;5071802;28;20093;-68
2022/03/29 07:51:29;;;;;;;18.65;10.15;;;22.20;44.30;;;;;;5074848;28;20036;-67
2022/03/29 07:53:55;;;;;;;18.90;10.07;;;22.10;44.60;;;;;;5074782;28;20041;-68
2022/03/29 07:56:21;;;;;;;22.77;10.63;;;22.20;44.80;;;;;;5072108;28;20080;-67
2022/03/29 07:58:47;;;;;;;25.05;9.95;;;22.20;44.90;;;;;;5084661;28;20052;-68
2022/03/29 08:01:14;;;;;;;19.08;10.10;;;22.20;45.00;;;;;;5085810;28;20043;-67
2022/03/29 08:03:40;;;;;;;21.73;9.50;;;22.20;45.10;;;;;;5091008;28;20047;-67
2022/03/29 08:06:06;;;;;;;18.60;9.10;;;22.10;45.20;;;;;;5092582;28;20101;-68
2022/03/29 08:08:34;;;;;;;21.08;11.35;;;22.20;45.40;;;;;;5090438;28;20056;-67
2022/03/29 08:11:01;;;;;;;17.70;10.23;;;22.30;45.50;;;;;;5091111;28;20055;-67
2022/03/29 08:13:27;;;;;;;21.35;10.30;;;22.20;45.50;;;;;;5080110;28;20064;-69
2022/03/29 08:15:55;;;;;;;25.27;11.45;;;22.20;45.50;;;;;;5074517;28;20072;-68
2022/03/29 08:18:21;;;;;;;22.02;10.48;;;22.10;45.70;;;;;;5090345;28;20044;-69
2022/03/29 08:20:48;;;;;;;23.88;10.35;;;22.10;45.40;;;;;;5115256;28;20101;-67
2022/03/29 08:23:14;;;;;;;24.20;10.98;;;22.10;45.90;;;;;;5105231;28;20037;-68
2022/03/29 08:25:45;;;;;;;17.48;8.77;;;22.10;45.80;;;;;;5085994;28;20097;-69
2022/03/29 08:28:12;;;;;;;25.60;12.15;;;22.10;46.10;;;;;;5090555;28;20037;-67
2022/03/29 08:30:38;;;;;;;21.92;11.13;;;22.20;46.10;;;;;;5092182;28;20041;-67
2022/03/29 08:33:04;;;;;;;19.02;10.13;;;22.10;46.10;;;;;;5092386;28;20029;-67
2022/03/29 08:35:33;;;;;;;23.20;9.73;;;22.20;46.30;;;;;;5075356;28;20071;-68
2022/03/29 08:37:59;;;;;;;20.60;10.35;;;22.30;46.50;;;;;;5071820;28;20041;-67
2022/03/29 08:40:26;;;;;;;22.17;10.43;;;22.20;46.40;;;;;;5073021;28;20049;-66
2022/03/29 08:42:55;;;;;;;27.77;10.88;;;22.30;46.60;;;;;;5075270;28;20071;-70
2022/03/29 08:45:30;;;;;;;25.95;11.95;;;22.30;46.80;;;;;;5091967;28;20032;-66
2022/03/29 08:47:58;;;;;;;28.05;10.15;;;22.20;47.00;;;;;;5084229;28;20073;-67
2022/03/29 08:50:29;;;;;;;19.27;9.85;;;22.30;47.40;;;;;;5074690;28;20092;-67
2022/03/29 08:52:55;;;;;;;19.63;9.88;;;22.20;47.50;;;;;;5078522;28;20051;-67
2022/03/29 08:55:22;;;;;;;16.17;9.52;;;22.30;47.70;;;;;;5078539;28;20064;-67
2022/03/29 08:57:54;;;;;;;26.35;10.85;;;22.40;47.70;;;;;;5078067;28;20055;-67
2022/03/29 09:00:23;;;;;;;22.55;10.20;;;22.40;47.90;;;;;;5059032;28;20057;-67
2022/03/29 09:02:50;;;;;;;28.35;9.85;;;22.40;48.20;;;;;;5058136;28;20033;-66
2022/03/29 09:05:34;;;;;;;45.40;14.52;;;22.30;42.10;;;;;;5057888;28;20053;-66
2022/03/29 09:08:05;;;;;;;14.25;7.20;;;22.30;38.60;;;;;;5057798;28;20041;-67
2022/03/29 09:10:44;;;;;;;9.48;5.88;;;22.20;37.70;;;;;;5068988;28;20090;-68
2022/03/29 09:13:21;;;;;;;23.65;12.52;;;22.10;35.40;;;;;;5076820;28;20041;-67
2022/03/29 09:15:49;;;;;;;20.63;11.88;;;22.40;54.70;;;;;;5057919;28;20052;-67
2022/03/29 09:18:15;;;;;;;24.15;10.80;;;22.40;56.70;;;;;;5057590;28;20041;-68
2022/03/29 09:20:41;;;;;;;26.55;12.00;;;22.50;57.50;;;;;;5077064;28;20048;-68
2022/03/29 09:23:18;;;;;;;24.50;10.88;;;22.50;58.30;;;;;;5077894;28;20064;-68
2022/03/29 09:25:47;;;;;;;26.40;12.70;;;22.50;57.60;;;;;;5077237;28;20037;-67
2022/03/29 09:28:20;;;;;;;25.42;11.95;;;22.50;56.50;;;;;;5059169;28;20041;-68
2022/03/29 09:30:55;;;;;;;11.05;6.55;;;22.50;56.20;;;;;;5071397;28;20041;-66
2022/03/29 09:33:41;;;;;;;11.02;5.40;;;22.50;43.00;;;;;;5056202;28;20113;-67
2022/03/29 09:36:10;;;;;;;10.32;5.47;;;22.50;41.20;;;;;;5056367;28;20110;-68
2022/03/29 09:38:41;;;;;;;13.65;7.28;;;22.50;39.80;;;;;;5073805;28;20079;-67
2022/03/29 09:41:28;;;;;;;11.32;5.63;;;22.40;38.60;;;;;;5075450;28;20092;-68
2022/03/29 09:43:58;;;;;;;9.75;5.72;;;22.40;37.60;;;;;;5073387;28;20109;-68
2022/03/29 09:46:26;;;;;;;11.57;5.95;;;22.40;37.30;;;;;;5071208;28;20046;-67
2022/03/29 09:49:01;;;;;;;11.57;6.57;;;22.30;38.50;;;;;;5077144;28;20061;-66
2022/03/29 09:51:28;;;;;;;12.30;5.78;;;22.30;36.70;;;;;;5076997;28;20043;-66
2022/03/29 09:53:57;;;;;;;11.23;5.57;;;22.30;36.30;;;;;;5077116;28;20036;-67
2022/03/29 09:56:30;;;;;;;13.10;6.35;;;22.30;39.90;;;;;;5075179;28;20044;-67
2022/03/29 09:59:16;;;;;;;10.35;4.82;;;22.40;37.50;;;;;;5076306;28;20068;-68
2022/03/29 10:01:52;;;;;;;19.77;6.22;;;22.40;35.70;;;;;;5056068;28;20511;-67
2022/03/29 10:04:20;;;;;;;11.20;5.90;;;22.30;35.70;;;;;;5056591;28;20033;-67
2022/03/29 10:06:49;;;;;;;23.17;7.57;;;22.40;37.30;;;;;;5070294;28;20068;-68
2022/03/29 10:09:35;;;;;;;20.38;9.27;;;22.50;40.70;;;;;;5071414;28;20037;-67
2022/03/29 10:12:05;;;;;;;19.73;9.45;;;22.60;37.90;;;;;;5098490;28;20056;-68
2022/03/29 10:14:38;;;;;;;8.75;6.15;;;22.60;36.50;;;;;;5075197;28;20045;-67
2022/03/29 10:17:06;;;;;;;11.80;6.30;;;22.80;41.60;;;;;;5072770;28;20117;-68
2022/03/29 10:19:33;;;;;;;15.32;7.43;;;22.60;36.20;;;;;;5077401;28;20040;-67
2022/03/29 10:22:00;;;;;;;11.82;7.13;;;22.60;35.20;;;;;;5096573;28;20055;-68
2022/03/29 10:24:28;;;;;;;17.13;8.45;;;22.70;36.30;;;;;;5086229;28;20037;-68
2022/03/29 10:26:57;;;;;;;16.25;8.27;;;22.60;49.60;;;;;;5068812;28;20044;-68
2022/03/29 10:29:23;;;;;;;16.52;10.05;;;23.00;49.20;;;;;;5068344;28;20056;-68
2022/03/29 10:31:57;;;;;;;15.13;8.40;;;23.20;48.70;;;;;;5073075;28;20041;-67
2022/03/29 10:34:25;;;;;;;28.15;8.90;;;23.50;48.10;;;;;;5073706;28;20057;-68
2022/03/29 10:37:14;;;;;;;17.02;8.30;;;23.70;47.90;;;;;;5073519;28;20037;-67
2022/03/29 10:39:53;;;;;;;18.60;8.70;;;23.60;47.80;;;;;;5086413;28;20116;-70
2022/03/29 10:42:33;;;;;;;12.27;5.55;;;23.80;48.00;;;;;;5075909;28;20041;-67
2022/03/29 10:45:07;;;;;;;12.10;6.20;;;23.70;48.40;;;;;;5103865;28;20049;-68
2022/03/29 10:47:34;;;;;;;10.40;6.13;;;23.60;48.50;;;;;;5080964;28;20070;-68
2022/03/29 10:50:02;;;;;;;9.80;5.63;;;23.60;48.50;;;;;;5086991;28;20041;-67
2022/03/29 10:52:29;;;;;;;10.40;5.65;;;23.50;48.60;;;;;;5075172;28;20124;-68
2022/03/29 10:55:18;;;;;;;4.97;3.72;;;23.60;48.80;;;;;;5072956;28;20040;-69
2022/03/29 10:58:04;;;;;;;7.60;3.80;;;23.50;49.20;;;;;;5065714;28;20066;-68
2022/03/29 11:00:31;;;;;;;9.82;4.10;;;23.40;49.70;;;;;;5083441;28;20045;-68
2022/03/29 11:03:09;;;;;;;6.22;4.40;;;23.50;50.00;;;;;;5073822;28;20037;-68
2022/03/29 11:06:11;;;;;;;8.07;3.60;;;23.40;50.00;;;;;;5095208;28;20025;-67
2022/03/29 11:08:42;;;;;;;9.50;4.53;;;23.50;50.20;;;;;;5085905;28;20104;-68
2022/03/29 11:11:41;;;;;;;6.07;3.55;;;23.40;50.10;;;;;;5077713;28;20037;-68
2022/03/29 11:14:29;;;;;;;9.85;3.95;;;23.40;50.30;;;;;;5090891;28;20136;-69
2022/03/29 11:17:18;;;;;;;8.20;4.20;;;23.30;50.30;;;;;;5074000;28;20045;-68
2022/03/29 11:19:48;;;;;;;5.60;3.70;;;23.30;50.40;;;;;;5075391;28;20076;-68
2022/03/29 11:22:31;;;;;;;8.85;4.43;;;23.30;50.40;;;;;;5074478;28;21306;-68
2022/03/29 11:25:12;;;;;;;9.35;3.97;;;23.30;50.50;;;;;;5067517;28;20113;-66
2022/03/29 11:27:39;;;;;;;9.35;4.78;;;23.40;50.40;;;;;;5073130;28;20045;-67
2022/03/29 11:30:10;;;;;;;7.97;4.38;;;23.30;50.50;;;;;;5076473;28;20067;-68
2022/03/29 11:32:40;;;;;;;8.93;5.20;;;23.20;50.50;;;;;;5087311;28;20045;-68
2022/03/29 11:35:08;;;;;;;9.25;5.13;;;23.20;50.60;;;;;;5062239;28;20052;-68
2022/03/29 11:37:39;;;;;;;7.40;4.13;;;23.30;50.60;;;;;;5065200;28;20079;-68
2022/03/29 11:40:07;;;;;;;8.07;3.58;;;23.30;50.50;;;;;;5071389;28;20067;-68
2022/03/29 11:42:49;;;;;;;8.65;4.45;;;23.20;51.30;;;;;;5072464;28;20048;-69
2022/03/29 11:45:17;;;;;;;8.82;3.95;;;23.20;53.20;;;;;;5075350;28;20041;-69
2022/03/29 11:48:04;;;;;;;10.75;5.28;;;23.30;54.20;;;;;;5074031;28;20037;-69
2022/03/29 11:50:44;;;;;;;11.43;6.65;;;23.10;55.60;;;;;;5088168;28;20101;-68
2022/03/29 11:53:25;;;;;;;9.05;5.57;;;23.20;54.00;;;;;;5076354;28;20091;-68
2022/03/29 11:56:08;;;;;;;9.70;6.22;;;23.00;53.10;;;;;;5075860;28;20041;-72
2022/03/29 11:58:45;;;;;;;6.60;3.78;;;23.10;52.70;;;;;;5075050;28;20044;-70
2022/03/29 12:01:13;;;;;;;2.25;1.73;;;23.00;52.20;;;;;;5063685;28;20044;-71
2022/03/29 12:03:42;;;;;;;9.00;4.97;;;23.20;51.90;;;;;;5075400;28;20047;-71
2022/03/29 12:06:17;;;;;;;5.65;4.07;;;23.10;51.50;;;;;;5075528;28;20059;-71
2022/03/29 12:09:00;;;;;;;3.83;1.27;;;23.10;51.10;;;;;;5068516;28;20108;-71
2022/03/29 12:11:39;;;;;;;9.10;5.32;;;23.10;50.30;;;;;;5073065;28;20059;-71
2022/03/29 12:14:09;;;;;;;7.38;4.50;;;23.10;49.40;;;;;;5075409;28;20052;-71
2022/03/29 12:16:41;;;;;;;6.10;3.13;;;23.00;48.50;;;;;;5068083;28;20072;-71
2022/03/29 12:19:08;;;;;;;12.05;4.45;;;23.00;47.60;;;;;;5072874;28;20051;-71
2022/03/29 12:21:35;;;;;;;7.80;3.60;;;23.00;47.00;;;;;;5073616;28;20037;-71
2022/03/29 12:24:09;;;;;;;9.43;4.80;;;23.10;46.30;;;;;;5075877;28;20047;-72
2022/03/29 12:26:40;;;;;;;5.25;1.73;;;23.20;45.60;;;;;;5081943;28;20075;-68
2022/03/29 12:29:10;;;;;;;5.32;3.55;;;23.10;45.10;;;;;;5096438;28;20044;-69
2022/03/29 12:31:37;;;;;;;8.48;4.88;;;23.10;44.20;;;;;;5069136;28;20042;-69
2022/03/29 12:34:03;;;;;;;11.88;5.35;;;23.10;42.70;;;;;;5059016;28;20064;-69
2022/03/29 12:36:31;;;;;;;7.63;4.30;;;23.00;43.30;;;;;;5060495;28;20052;-68
2022/03/29 12:39:03;;;;;;;6.40;3.67;;;23.00;42.70;;;;;;5081618;28;20048;-69
2022/03/29 12:42:01;;;;;;;7.82;3.35;;;23.00;42.40;;;;;;5081214;28;20041;-68
2022/03/29 12:44:39;;;;;;;9.75;3.88;;;23.00;42.80;;;;;;5072865;28;20037;-68
2022/03/29 12:47:06;;;;;;;6.40;4.60;;;23.00;42.90;;;;;;5098868;28;20098;-69
2022/03/29 12:49:34;;;;;;;7.35;4.70;;;23.00;43.40;;;;;;5077676;28;20060;-68
2022/03/29 12:52:03;;;;;;;9.13;3.63;;;22.90;43.20;;;;;;5075673;28;20056;-69
2022/03/29 12:54:45;;;;;;;6.35;2.83;;;23.00;43.50;;;;;;5091331;28;20100;-69